sensor_id;sensor_type;location;lat;lon;timestamp;P1;durP1;ratioP1;P2;durP2;ratioP2
21352;SDS011;10834;52.268;6.770;2022-10-16T00:01:23;4.53;;;2.67;;
21352;SDS011;10834;52.268;6.770;2022-10-16T00:04:12;4.33;;;3.27;;
21352;SDS011;10834;52.268;6.770;2022-10-16T00:06:58;5.70;;;3.47;;
21352;SDS011;10834;52.268;6.770;2022-10-16T00:09:45;5.23;;;2.40;;
21352;SDS011;10834;52.268;6.770;2022-10-16T00:12:31;5.00;;;2.83;;
21352;SDS011;10834;52.268;6.770;2022-10-16T00:15:17;7.87;;;2.90;;
21352;SDS011;10834;52.268;6.770;2022-10-16T00:18:03;5.40;;;2.60;;
21352;SDS011;10834;52.268;6.770;2022-10-16T00:20:50;3.30;;;2.43;;
21352;SDS011;10834;52.268;6.770;2022-10-16T00:23:37;5.30;;;3.07;;
21352;SDS011;10834;52.268;6.770;2022-10-16T00:26:24;7.30;;;3.20;;
21352;SDS011;10834;52.268;6.770;2022-10-16T00:29:11;5.90;;;3.10;;
21352;SDS011;10834;52.268;6.770;2022-10-16T00:31:57;6.10;;;3.33;;
21352;SDS011;10834;52.268;6.770;2022-10-16T00:34:43;5.90;;;3.17;;
21352;SDS011;10834;52.268;6.770;2022-10-16T00:37:29;4.63;;;3.00;;
21352;SDS011;10834;52.268;6.770;2022-10-16T00:40:16;8.23;;;3.10;;
21352;SDS011;10834;52.268;6.770;2022-10-16T00:43:02;6.13;;;3.77;;
21352;SDS011;10834;52.268;6.770;2022-10-16T00:45:54;7.33;;;3.23;;
21352;SDS011;10834;52.268;6.770;2022-10-16T00:48:41;5.77;;;3.40;;
21352;SDS011;10834;52.268;6.770;2022-10-16T00:51:37;6.07;;;2.67;;
21352;SDS011;10834;52.268;6.770;2022-10-16T00:54:32;3.90;;;3.57;;
21352;SDS011;10834;52.268;6.770;2022-10-16T00:57:18;8.50;;;4.77;;
21352;SDS011;10834;52.268;6.770;2022-10-16T01:00:06;5.03;;;2.80;;
21352;SDS011;10834;52.268;6.770;2022-10-16T01:02:55;3.87;;;2.70;;
21352;SDS011;10834;52.268;6.770;2022-10-16T01:05:44;4.67;;;3.13;;
21352;SDS011;10834;52.268;6.770;2022-10-16T01:11:35;7.63;;;3.50;;
21352;SDS011;10834;52.268;6.770;2022-10-16T01:20:33;5.80;;;3.90;;
21352;SDS011;10834;52.268;6.770;2022-10-16T01:29:14;6.90;;;3.83;;
21352;SDS011;10834;52.268;6.770;2022-10-16T01:32:57;5.80;;;3.80;;
21352;SDS011;10834;52.268;6.770;2022-10-16T01:35:32;5.43;;;3.30;;
21352;SDS011;10834;52.268;6.770;2022-10-16T01:41:34;6.73;;;4.20;;
21352;SDS011;10834;52.268;6.770;2022-10-16T01:44:29;7.53;;;4.70;;
21352;SDS011;10834;52.268;6.770;2022-10-16T01:47:17;8.87;;;4.80;;
21352;SDS011;10834;52.268;6.770;2022-10-16T01:50:08;9.73;;;5.23;;
21352;SDS011;10834;52.268;6.770;2022-10-16T01:52:54;9.97;;;5.77;;
21352;SDS011;10834;52.268;6.770;2022-10-16T01:55:43;13.50;;;5.67;;
21352;SDS011;10834;52.268;6.770;2022-10-16T01:58:33;9.43;;;6.40;;
21352;SDS011;10834;52.268;6.770;2022-10-16T02:01:24;10.93;;;5.60;;
21352;SDS011;10834;52.268;6.770;2022-10-16T02:04:24;8.20;;;5.73;;
21352;SDS011;10834;52.268;6.770;2022-10-16T02:07:12;11.27;;;5.70;;
21352;SDS011;10834;52.268;6.770;2022-10-16T02:09:59;8.60;;;5.10;;
21352;SDS011;10834;52.268;6.770;2022-10-16T02:12:50;8.93;;;5.00;;
21352;SDS011;10834;52.268;6.770;2022-10-16T02:15:44;8.20;;;5.53;;
21352;SDS011;10834;52.268;6.770;2022-10-16T02:18:31;7.60;;;5.13;;
21352;SDS011;10834;52.268;6.770;2022-10-16T02:21:19;8.97;;;6.07;;
21352;SDS011;10834;52.268;6.770;2022-10-16T02:28:04;9.57;;;5.40;;
21352;SDS011;10834;52.268;6.770;2022-10-16T02:31:03;9.47;;;5.73;;
21352;SDS011;10834;52.268;6.770;2022-10-16T02:33:51;6.27;;;5.30;;
21352;SDS011;10834;52.268;6.770;2022-10-16T02:36:40;8.33;;;5.80;;
21352;SDS011;10834;52.268;6.770;2022-10-16T02:39:27;5.77;;;5.17;;
21352;SDS011;10834;52.268;6.770;2022-10-16T02:42:15;7.47;;;6.03;;
21352;SDS011;10834;52.268;6.770;2022-10-16T02:45:03;5.77;;;5.20;;
21352;SDS011;10834;52.268;6.770;2022-10-16T02:47:50;8.77;;;6.90;;
21352;SDS011;10834;52.268;6.770;2022-10-16T02:50:37;8.73;;;6.23;;
21352;SDS011;10834;52.268;6.770;2022-10-16T02:53:23;6.60;;;5.43;;
21352;SDS011;10834;52.268;6.770;2022-10-16T02:56:09;7.43;;;5.77;;
21352;SDS011;10834;52.268;6.770;2022-10-16T02:58:55;10.30;;;6.53;;
21352;SDS011;10834;52.268;6.770;2022-10-16T03:01:41;8.57;;;5.13;;
21352;SDS011;10834;52.268;6.770;2022-10-16T03:04:27;8.87;;;5.23;;
21352;SDS011;10834;52.268;6.770;2022-10-16T03:07:13;6.83;;;5.13;;
21352;SDS011;10834;52.268;6.770;2022-10-16T03:09:59;7.63;;;4.97;;
21352;SDS011;10834;52.268;6.770;2022-10-16T03:12:45;7.90;;;5.37;;
21352;SDS011;10834;52.268;6.770;2022-10-16T03:15:31;7.03;;;5.33;;
21352;SDS011;10834;52.268;6.770;2022-10-16T03:18:17;9.03;;;5.93;;
21352;SDS011;10834;52.268;6.770;2022-10-16T03:21:03;7.53;;;5.20;;
21352;SDS011;10834;52.268;6.770;2022-10-16T03:23:49;6.03;;;5.43;;
21352;SDS011;10834;52.268;6.770;2022-10-16T03:26:35;7.07;;;4.93;;
21352;SDS011;10834;52.268;6.770;2022-10-16T03:29:21;6.23;;;4.80;;
21352;SDS011;10834;52.268;6.770;2022-10-16T03:32:08;4.60;;;4.10;;
21352;SDS011;10834;52.268;6.770;2022-10-16T03:34:53;5.30;;;4.00;;
21352;SDS011;10834;52.268;6.770;2022-10-16T03:37:41;5.57;;;3.50;;
21352;SDS011;10834;52.268;6.770;2022-10-16T03:40:27;5.63;;;2.97;;
21352;SDS011;10834;52.268;6.770;2022-10-16T03:43:13;5.33;;;3.90;;
21352;SDS011;10834;52.268;6.770;2022-10-16T03:46:00;3.73;;;3.43;;
21352;SDS011;10834;52.268;6.770;2022-10-16T03:48:46;3.50;;;3.20;;
21352;SDS011;10834;52.268;6.770;2022-10-16T03:51:31;4.00;;;3.10;;
21352;SDS011;10834;52.268;6.770;2022-10-16T03:54:17;5.60;;;3.37;;
21352;SDS011;10834;52.268;6.770;2022-10-16T03:57:04;4.53;;;3.07;;
21352;SDS011;10834;52.268;6.770;2022-10-16T03:59:50;5.87;;;3.40;;
21352;SDS011;10834;52.268;6.770;2022-10-16T04:02:36;7.90;;;5.00;;
21352;SDS011;10834;52.268;6.770;2022-10-16T04:05:22;6.03;;;3.83;;
21352;SDS011;10834;52.268;6.770;2022-10-16T04:08:08;5.10;;;3.53;;
21352;SDS011;10834;52.268;6.770;2022-10-16T04:10:54;6.07;;;3.37;;
21352;SDS011;10834;52.268;6.770;2022-10-16T04:13:40;4.17;;;3.57;;
21352;SDS011;10834;52.268;6.770;2022-10-16T04:16:26;4.47;;;2.97;;
21352;SDS011;10834;52.268;6.770;2022-10-16T04:19:13;3.87;;;3.30;;
21352;SDS011;10834;52.268;6.770;2022-10-16T04:21:59;4.13;;;3.73;;
21352;SDS011;10834;52.268;6.770;2022-10-16T04:24:45;3.80;;;3.17;;
21352;SDS011;10834;52.268;6.770;2022-10-16T04:27:31;5.83;;;3.40;;
21352;SDS011;10834;52.268;6.770;2022-10-16T04:30:17;7.37;;;3.47;;
21352;SDS011;10834;52.268;6.770;2022-10-16T04:33:03;5.10;;;3.30;;
21352;SDS011;10834;52.268;6.770;2022-10-16T04:35:55;3.63;;;3.20;;
21352;SDS011;10834;52.268;6.770;2022-10-16T04:38:42;4.00;;;3.60;;
21352;SDS011;10834;52.268;6.770;2022-10-16T04:41:28;5.43;;;2.93;;
21352;SDS011;10834;52.268;6.770;2022-10-16T04:44:14;4.83;;;3.40;;
21352;SDS011;10834;52.268;6.770;2022-10-16T04:47:00;5.43;;;4.03;;
21352;SDS011;10834;52.268;6.770;2022-10-16T04:49:46;4.33;;;3.30;;
21352;SDS011;10834;52.268;6.770;2022-10-16T04:52:32;7.63;;;3.20;;
21352;SDS011;10834;52.268;6.770;2022-10-16T04:55:19;5.90;;;3.23;;
21352;SDS011;10834;52.268;6.770;2022-10-16T04:58:05;4.53;;;3.13;;
21352;SDS011;10834;52.268;6.770;2022-10-16T05:00:51;4.53;;;3.57;;
21352;SDS011;10834;52.268;6.770;2022-10-16T05:03:37;7.47;;;3.73;;
21352;SDS011;10834;52.268;6.770;2022-10-16T05:06:23;5.10;;;3.70;;
21352;SDS011;10834;52.268;6.770;2022-10-16T05:09:09;5.30;;;3.60;;
21352;SDS011;10834;52.268;6.770;2022-10-16T05:11:55;4.27;;;3.67;;
21352;SDS011;10834;52.268;6.770;2022-10-16T05:14:41;4.90;;;3.90;;
21352;SDS011;10834;52.268;6.770;2022-10-16T05:17:27;6.23;;;4.00;;
21352;SDS011;10834;52.268;6.770;2022-10-16T05:20:13;4.50;;;3.07;;
21352;SDS011;10834;52.268;6.770;2022-10-16T05:22:59;5.17;;;3.00;;
21352;SDS011;10834;52.268;6.770;2022-10-16T05:25:51;4.00;;;3.03;;
21352;SDS011;10834;52.268;6.770;2022-10-16T05:28:43;4.10;;;3.67;;
21352;SDS011;10834;52.268;6.770;2022-10-16T05:31:29;5.47;;;3.37;;
21352;SDS011;10834;52.268;6.770;2022-10-16T05:34:15;3.13;;;2.83;;
21352;SDS011;10834;52.268;6.770;2022-10-16T05:37:01;3.93;;;3.20;;
21352;SDS011;10834;52.268;6.770;2022-10-16T05:39:47;3.50;;;3.27;;
21352;SDS011;10834;52.268;6.770;2022-10-16T05:42:33;5.13;;;3.33;;
21352;SDS011;10834;52.268;6.770;2022-10-16T05:45:19;4.33;;;3.17;;
21352;SDS011;10834;52.268;6.770;2022-10-16T05:48:05;4.30;;;2.93;;
21352;SDS011;10834;52.268;6.770;2022-10-16T05:51:02;3.80;;;3.40;;
21352;SDS011;10834;52.268;6.770;2022-10-16T05:53:50;3.43;;;3.13;;
21352;SDS011;10834;52.268;6.770;2022-10-16T05:56:37;5.87;;;3.37;;
21352;SDS011;10834;52.268;6.770;2022-10-16T05:59:23;5.70;;;3.23;;
21352;SDS011;10834;52.268;6.770;2022-10-16T06:02:13;6.10;;;3.50;;
21352;SDS011;10834;52.268;6.770;2022-10-16T06:04:59;6.50;;;3.73;;
21352;SDS011;10834;52.268;6.770;2022-10-16T06:07:45;4.93;;;2.90;;
21352;SDS011;10834;52.268;6.770;2022-10-16T06:10:31;7.87;;;4.40;;
21352;SDS011;10834;52.268;6.770;2022-10-16T06:13:17;6.10;;;3.70;;
21352;SDS011;10834;52.268;6.770;2022-10-16T06:16:03;4.07;;;3.20;;
21352;SDS011;10834;52.268;6.770;2022-10-16T06:18:50;6.13;;;3.67;;
21352;SDS011;10834;52.268;6.770;2022-10-16T06:21:45;5.87;;;3.77;;
21352;SDS011;10834;52.268;6.770;2022-10-16T06:24:31;5.20;;;3.27;;
21352;SDS011;10834;52.268;6.770;2022-10-16T06:27:17;6.97;;;3.53;;
21352;SDS011;10834;52.268;6.770;2022-10-16T06:30:03;4.70;;;3.60;;
21352;SDS011;10834;52.268;6.770;2022-10-16T06:32:49;5.37;;;2.90;;
21352;SDS011;10834;52.268;6.770;2022-10-16T06:35:36;4.47;;;3.50;;
21352;SDS011;10834;52.268;6.770;2022-10-16T06:38:22;5.50;;;3.50;;
21352;SDS011;10834;52.268;6.770;2022-10-16T06:41:09;3.23;;;3.03;;
21352;SDS011;10834;52.268;6.770;2022-10-16T06:43:57;5.23;;;3.13;;
21352;SDS011;10834;52.268;6.770;2022-10-16T06:46:43;5.87;;;3.57;;
21352;SDS011;10834;52.268;6.770;2022-10-16T06:49:29;8.47;;;3.77;;
21352;SDS011;10834;52.268;6.770;2022-10-16T06:52:15;3.87;;;3.43;;
21352;SDS011;10834;52.268;6.770;2022-10-16T06:55:01;4.97;;;3.63;;
21352;SDS011;10834;52.268;6.770;2022-10-16T06:57:48;4.33;;;3.07;;
21352;SDS011;10834;52.268;6.770;2022-10-16T07:00:34;4.43;;;3.70;;
21352;SDS011;10834;52.268;6.770;2022-10-16T07:03:20;3.70;;;3.30;;
21352;SDS011;10834;52.268;6.770;2022-10-16T07:06:06;3.00;;;2.70;;
21352;SDS011;10834;52.268;6.770;2022-10-16T07:08:53;4.53;;;3.00;;
21352;SDS011;10834;52.268;6.770;2022-10-16T07:11:40;4.30;;;2.77;;
21352;SDS011;10834;52.268;6.770;2022-10-16T07:14:26;3.30;;;2.80;;
21352;SDS011;10834;52.268;6.770;2022-10-16T07:17:13;4.33;;;2.90;;
21352;SDS011;10834;52.268;6.770;2022-10-16T07:19:59;2.90;;;2.70;;
21352;SDS011;10834;52.268;6.770;2022-10-16T07:22:45;3.17;;;2.47;;
21352;SDS011;10834;52.268;6.770;2022-10-16T07:25:31;6.13;;;2.83;;
21352;SDS011;10834;52.268;6.770;2022-10-16T07:28:17;4.73;;;2.20;;
21352;SDS011;10834;52.268;6.770;2022-10-16T07:31:07;2.33;;;2.07;;
21352;SDS011;10834;52.268;6.770;2022-10-16T07:33:57;8.07;;;2.37;;
21352;SDS011;10834;52.268;6.770;2022-10-16T07:36:46;4.90;;;2.23;;
21352;SDS011;10834;52.268;6.770;2022-10-16T07:39:33;4.33;;;2.57;;
21352;SDS011;10834;52.268;6.770;2022-10-16T07:42:20;3.97;;;2.13;;
21352;SDS011;10834;52.268;6.770;2022-10-16T07:45:06;3.33;;;2.20;;
21352;SDS011;10834;52.268;6.770;2022-10-16T07:47:52;3.97;;;2.30;;
21352;SDS011;10834;52.268;6.770;2022-10-16T07:50:38;3.60;;;2.63;;
21352;SDS011;10834;52.268;6.770;2022-10-16T07:53:25;3.87;;;2.33;;
21352;SDS011;10834;52.268;6.770;2022-10-16T07:56:11;2.77;;;2.20;;
21352;SDS011;10834;52.268;6.770;2022-10-16T07:58:57;5.30;;;2.40;;
21352;SDS011;10834;52.268;6.770;2022-10-16T08:01:43;4.63;;;2.63;;
21352;SDS011;10834;52.268;6.770;2022-10-16T08:04:29;5.47;;;1.97;;
21352;SDS011;10834;52.268;6.770;2022-10-16T08:07:15;2.73;;;1.70;;
21352;SDS011;10834;52.268;6.770;2022-10-16T08:10:01;4.63;;;2.57;;
21352;SDS011;10834;52.268;6.770;2022-10-16T08:12:48;4.07;;;2.73;;
21352;SDS011;10834;52.268;6.770;2022-10-16T08:15:34;3.80;;;2.00;;
21352;SDS011;10834;52.268;6.770;2022-10-16T08:18:20;4.73;;;2.00;;
21352;SDS011;10834;52.268;6.770;2022-10-16T08:21:06;2.37;;;2.17;;
21352;SDS011;10834;52.268;6.770;2022-10-16T08:23:57;4.50;;;2.03;;
21352;SDS011;10834;52.268;6.770;2022-10-16T08:26:44;3.30;;;2.20;;
21352;SDS011;10834;52.268;6.770;2022-10-16T08:29:30;3.13;;;2.17;;
21352;SDS011;10834;52.268;6.770;2022-10-16T08:32:16;5.33;;;2.07;;
21352;SDS011;10834;52.268;6.770;2022-10-16T08:35:02;4.50;;;2.10;;
21352;SDS011;10834;52.268;6.770;2022-10-16T08:37:48;4.90;;;1.70;;
21352;SDS011;10834;52.268;6.770;2022-10-16T08:40:35;3.43;;;1.67;;
21352;SDS011;10834;52.268;6.770;2022-10-16T08:50:21;4.00;;;1.60;;
21352;SDS011;10834;52.268;6.770;2022-10-16T08:53:13;5.03;;;2.40;;
21352;SDS011;10834;52.268;6.770;2022-10-16T08:56:05;4.13;;;2.70;;
21352;SDS011;10834;52.268;6.770;2022-10-16T08:58:52;4.80;;;1.90;;
21352;SDS011;10834;52.268;6.770;2022-10-16T09:01:49;2.77;;;1.67;;
21352;SDS011;10834;52.268;6.770;2022-10-16T09:07:32;9.80;;;2.38;;
21352;SDS011;10834;52.268;6.770;2022-10-16T09:13:51;2.75;;;1.77;;
21352;SDS011;10834;52.268;6.770;2022-10-16T09:17:00;2.03;;;1.70;;
21352;SDS011;10834;52.268;6.770;2022-10-16T09:23:22;5.05;;;2.05;;
21352;SDS011;10834;52.268;6.770;2022-10-16T09:26:15;6.93;;;1.98;;
21352;SDS011;10834;52.268;6.770;2022-10-16T09:29:03;2.28;;;1.65;;
21352;SDS011;10834;52.268;6.770;2022-10-16T09:31:49;3.20;;;1.88;;
21352;SDS011;10834;52.268;6.770;2022-10-16T09:34:36;3.63;;;2.25;;
21352;SDS011;10834;52.268;6.770;2022-10-16T09:37:28;4.68;;;1.98;;
21352;SDS011;10834;52.268;6.770;2022-10-16T09:40:32;2.13;;;1.65;;
21352;SDS011;10834;52.268;6.770;2022-10-16T09:43:32;3.83;;;2.10;;
21352;SDS011;10834;52.268;6.770;2022-10-16T09:46:27;2.75;;;2.10;;
21352;SDS011;10834;52.268;6.770;2022-10-16T09:49:20;3.47;;;2.15;;
21352;SDS011;10834;52.268;6.770;2022-10-16T09:52:12;2.63;;;2.30;;
21352;SDS011;10834;52.268;6.770;2022-10-16T09:55:02;4.07;;;1.88;;
21352;SDS011;10834;52.268;6.770;2022-10-16T09:57:58;3.40;;;1.90;;
21352;SDS011;10834;52.268;6.770;2022-10-16T10:00:53;2.00;;;1.50;;
21352;SDS011;10834;52.268;6.770;2022-10-16T10:03:41;3.20;;;2.38;;
21352;SDS011;10834;52.268;6.770;2022-10-16T10:06:30;4.85;;;2.10;;
21352;SDS011;10834;52.268;6.770;2022-10-16T10:12:27;6.17;;;1.90;;
21352;SDS011;10834;52.268;6.770;2022-10-16T10:15:17;3.30;;;2.30;;
21352;SDS011;10834;52.268;6.770;2022-10-16T10:18:16;3.07;;;1.73;;
21352;SDS011;10834;52.268;6.770;2022-10-16T10:21:05;4.03;;;2.05;;
21352;SDS011;10834;52.268;6.770;2022-10-16T10:24:00;3.60;;;2.00;;
21352;SDS011;10834;52.268;6.770;2022-10-16T10:27:06;5.88;;;2.60;;
21352;SDS011;10834;52.268;6.770;2022-10-16T10:36:09;6.23;;;2.10;;
21352;SDS011;10834;52.268;6.770;2022-10-16T10:42:22;5.28;;;1.52;;
21352;SDS011;10834;52.268;6.770;2022-10-16T10:45:22;6.95;;;2.13;;
21352;SDS011;10834;52.268;6.770;2022-10-16T10:48:14;5.68;;;2.03;;
21352;SDS011;10834;52.268;6.770;2022-10-16T10:51:30;4.00;;;2.60;;
21352;SDS011;10834;52.268;6.770;2022-10-16T10:54:28;7.40;;;2.58;;
21352;SDS011;10834;52.268;6.770;2022-10-16T11:00:28;9.57;;;1.65;;
21352;SDS011;10834;52.268;6.770;2022-10-16T11:06:48;5.15;;;1.33;;
21352;SDS011;10834;52.268;6.770;2022-10-16T11:09:39;6.25;;;1.60;;
21352;SDS011;10834;52.268;6.770;2022-10-16T11:12:40;11.02;;;1.65;;
21352;SDS011;10834;52.268;6.770;2022-10-16T11:15:31;3.70;;;1.42;;
21352;SDS011;10834;52.268;6.770;2022-10-16T11:21:43;7.38;;;1.77;;
21352;SDS011;10834;52.268;6.770;2022-10-16T11:24:42;10.63;;;2.10;;
21352;SDS011;10834;52.268;6.770;2022-10-16T11:27:38;11.55;;;2.05;;
21352;SDS011;10834;52.268;6.770;2022-10-16T11:30:44;3.35;;;1.38;;
21352;SDS011;10834;52.268;6.770;2022-10-16T11:33:37;7.40;;;1.52;;
21352;SDS011;10834;52.268;6.770;2022-10-16T11:36:39;5.10;;;1.15;;
21352;SDS011;10834;52.268;6.770;2022-10-16T11:39:49;5.67;;;1.27;;
21352;SDS011;10834;52.268;6.770;2022-10-16T11:42:39;6.22;;;1.83;;
21352;SDS011;10834;52.268;6.770;2022-10-16T11:54:28;5.90;;;2.53;;
21352;SDS011;10834;52.268;6.770;2022-10-16T11:57:20;8.20;;;3.92;;
21352;SDS011;10834;52.268;6.770;2022-10-16T12:00:18;17.23;;;11.57;;
21352;SDS011;10834;52.268;6.770;2022-10-16T13:47:04;5.37;;;1.47;;
21352;SDS011;10834;52.268;6.770;2022-10-16T13:54:23;10.50;;;1.90;;
21352;SDS011;10834;52.268;6.770;2022-10-16T14:32:51;7.37;;;1.83;;
21352;SDS011;10834;52.268;6.770;2022-10-16T15:16:38;5.87;;;1.70;;
21352;SDS011;10834;52.268;6.770;2022-10-16T15:27:13;2.63;;;1.07;;
21352;SDS011;10834;52.268;6.770;2022-10-16T15:56:24;4.57;;;1.77;;
21352;SDS011;10834;52.268;6.770;2022-10-16T16:11:17;5.73;;;1.60;;
21352;SDS011;10834;52.268;6.770;2022-10-16T16:22:14;6.23;;;2.30;;
21352;SDS011;10834;52.268;6.770;2022-10-16T16:26:01;8.27;;;2.20;;
21352;SDS011;10834;52.268;6.770;2022-10-16T16:40:58;8.47;;;4.13;;
21352;SDS011;10834;52.268;6.770;2022-10-16T19:05:41;14.73;;;11.30;;
21352;SDS011;10834;52.268;6.770;2022-10-16T19:20:31;14.00;;;10.07;;
21352;SDS011;10834;52.268;6.770;2022-10-16T20:12:42;22.77;;;13.30;;
21352;SDS011;10834;52.268;6.770;2022-10-16T20:31:49;14.07;;;9.37;;
21352;SDS011;10834;52.268;6.770;2022-10-16T21:09:40;11.63;;;7.37;;
21352;SDS011;10834;52.268;6.770;2022-10-16T21:21:03;8.67;;;5.97;;
21352;SDS011;10834;52.268;6.770;2022-10-16T22:16:31;11.83;;;7.60;;
21352;SDS011;10834;52.268;6.770;2022-10-16T22:28:02;10.73;;;7.17;;
21352;SDS011;10834;52.268;6.770;2022-10-16T23:16:45;9.13;;;7.43;;
